Time;durP1;ratioP1;P1;durP2;ratioP2;P2;SDS_P1;SDS_P2;PMS_P1;PMS_P2;Temp;Humidity;BMP_temperature;BMP_pressure;BME280_temperature;BME280_humidity;BME280_pressure;Samples;Min_cycle;Max_cycle;Signal;HPM_P1;HPM_P2
2022/04/04 00:02:14;;;;;;;;;10.25;9.50;;;;;8.71;46.06;101830.06;5016158;28;45397;-77
2022/04/04 00:04:40;;;;;;;;;12.75;11.50;;;;;8.44;46.27;101811.78;5015797;28;45488;-78
2022/04/04 00:07:05;;;;;;;;;12.50;11.00;;;;;8.26;46.84;101793.06;5030278;28;45616;-75
2022/04/04 00:09:30;;;;;;;;;12.00;10.00;;;;;8.42;46.44;101823.19;5034929;28;45447;-79
2022/04/04 00:11:56;;;;;;;;;12.50;9.75;;;;;8.43;46.17;101825.94;5033864;28;45729;-77
2022/04/04 00:14:21;;;;;;;;;15.00;10.00;;;;;8.31;46.33;101814.59;5021206;28;45677;-78
2022/04/04 00:16:47;;;;;;;;;10.75;9.25;;;;;8.36;46.02;101809.53;5015759;28;45400;-77
2022/04/04 00:19:13;;;;;;;;;9.25;8.25;;;;;8.45;46.59;101828.69;5019210;28;45385;-77
2022/04/04 00:21:39;;;;;;;;;10.25;8.50;;;;;8.28;46.21;101790.47;5014817;28;46895;-78
2022/04/04 00:24:04;;;;;;;;;11.00;9.00;;;;;8.18;46.63;101778.44;5043207;28;45213;-78
2022/04/04 00:26:30;;;;;;;;;16.50;14.25;;;;;8.26;45.94;101793.06;5039396;28;45541;-78
2022/04/04 00:28:55;;;;;;;;;9.00;9.00;;;;;8.30;46.23;101791.50;5028813;28;45470;-75
2022/04/04 00:31:21;;;;;;;;;12.75;8.00;;;;;8.30;46.62;101792.41;5015390;28;45471;-79
2022/04/04 00:33:46;;;;;;;;;8.00;5.75;;;;;8.46;46.31;101814.53;5015204;28;45341;-78
2022/04/04 00:36:13;;;;;;;;;11.00;9.75;;;;;8.46;45.57;101814.53;5016620;28;45284;-77
2022/04/04 00:38:38;;;;;;;;;9.75;8.00;;;;;8.44;46.66;101813.53;5036696;28;45419;-76
2022/04/04 00:41:12;;;;;;;;;11.50;8.25;;;;;8.22;45.87;101779.53;5035169;28;46514;-76
2022/04/04 00:43:38;;;;;;;;;9.00;7.75;;;;;8.39;46.60;101791.06;5034730;28;45489;-78
2022/04/04 00:46:04;;;;;;;;;8.25;8.25;;;;;8.43;46.48;101795.72;5034827;28;45525;-77
2022/04/04 00:48:29;;;;;;;;;9.75;6.25;;;;;8.44;46.33;101818.88;5034528;28;45667;-78
2022/04/04 00:50:54;;;;;;;;;9.00;8.00;;;;;8.24;45.85;101777.84;5017994;28;45800;-78
2022/04/04 00:53:20;;;;;;;;;7.00;6.25;;;;;8.23;45.40;101774.28;5014950;28;45506;-78
2022/04/04 00:55:46;;;;;;;;;9.75;9.25;;;;;8.36;46.15;101798.88;5014645;28;45344;-77
2022/04/04 00:58:14;;;;;;;;;10.00;10.00;;;;;8.30;46.27;101792.41;5015293;28;45455;-77
2022/04/04 01:00:41;;;;;;;;;10.75;8.75;;;;;8.17;45.50;101770.41;5014601;28;46161;-77
2022/04/04 01:03:06;;;;;;;;;9.25;9.25;;;;;8.11;46.42;101766.53;5014620;28;45538;-78
2022/04/04 01:05:32;;;;;;;;;6.75;6.75;;;;;8.33;46.35;101804.94;5014703;28;45816;-77
2022/04/04 01:07:57;;;;;;;;;12.00;9.25;;;;;8.33;46.26;101799.63;5015037;28;45455;-77
2022/04/04 01:10:23;;;;;;;;;10.50;9.75;;;;;7.71;45.53;101700.59;5015754;28;46876;-76
2022/04/04 01:12:53;;;;;;;;;9.25;7.00;;;;;8.25;45.71;101803.63;5016036;28;45471;-76
2022/04/04 01:15:22;;;;;;;;;12.75;9.75;;;;;8.15;45.72;101786.28;5011285;28;45479;-73
2022/04/04 01:17:47;;;;;;;;;7.00;4.50;;;;;8.14;45.39;101788.88;4996927;28;45720;-75
2022/04/04 01:20:14;;;;;;;;;9.25;9.25;;;;;7.96;46.01;101756.88;5028791;28;45434;-76
2022/04/04 01:22:40;;;;;;;;;9.75;6.00;;;;;8.01;45.58;101766.91;5034160;28;45563;-74
2022/04/04 01:25:06;;;;;;;;;11.25;11.25;;;;;7.75;45.12;101723.88;5034813;28;45486;-77
2022/04/04 01:27:31;;;;;;;;;4.00;4.00;;;;;7.93;44.85;101770.91;5028459;28;45604;-76
2022/04/04 01:29:57;;;;;;;;;8.50;7.25;;;;;7.97;44.91;101770.25;5029426;28;45380;-74
2022/04/04 01:32:22;;;;;;;;;6.75;6.00;;;;;8.09;45.00;101784.19;5033501;28;45601;-75
2022/04/04 01:34:48;;;;;;;;;8.75;7.75;;;;;8.05;45.31;101781.28;5033360;28;45486;-77
2022/04/04 01:37:13;;;;;;;;;6.25;6.25;;;;;8.07;45.29;101780.53;5034102;28;45586;-77
2022/04/04 01:39:39;;;;;;;;;8.00;8.00;;;;;7.61;45.15;101694.72;5034150;28;45504;-77
2022/04/04 01:42:05;;;;;;;;;7.50;6.50;;;;;7.97;44.35;101758.66;5033657;28;45696;-74
2022/04/04 01:44:31;;;;;;;;;8.75;5.25;;;;;8.00;45.37;101775.75;5034406;28;45615;-76
2022/04/04 01:46:56;;;;;;;;;8.50;6.75;;;;;7.98;44.70;101755.19;5012254;28;45487;-75
2022/04/04 01:49:22;;;;;;;;;7.25;5.75;;;;;7.90;44.34;101744.13;4996018;28;46404;-74
2022/04/04 01:51:47;;;;;;;;;7.50;7.25;;;;;8.01;44.67;101772.22;5019457;28;45555;-78
2022/04/04 01:54:13;;;;;;;;;5.25;5.25;;;;;7.86;44.69;101740.41;5039426;28;45438;-77
2022/04/04 01:56:41;;;;;;;;;7.00;7.00;;;;;7.72;45.10;101713.06;5035041;28;45518;-77
2022/04/04 01:59:07;;;;;;;;;7.75;7.25;;;;;8.06;44.82;101764.50;5029074;28;46344;-77
2022/04/04 02:01:34;;;;;;;;;7.50;5.75;;;;;8.05;45.75;101760.94;5014181;28;45483;-78
2022/04/04 02:04:01;;;;;;;;;3.50;3.50;;;;;8.00;44.87;101762.44;5016902;28;45422;-76
2022/04/04 02:06:28;;;;;;;;;9.25;9.00;;;;;7.87;45.29;101765.25;5017792;28;45555;-77
2022/04/04 02:08:54;;;;;;;;;7.00;5.00;;;;;7.59;45.54;101718.56;5023666;28;46959;-76
2022/04/04 02:11:20;;;;;;;;;8.50;7.25;;;;;7.77;45.83;101758.53;5017542;28;45423;-76
2022/04/04 02:13:47;;;;;;;;;7.50;7.50;;;;;7.81;45.90;101756.94;5018418;28;45480;-77
2022/04/04 02:16:12;;;;;;;;;18.25;18.25;;;;;7.70;45.54;101730.66;5021265;28;45484;-75
2022/04/04 02:18:38;;;;;;;;;8.25;7.25;;;;;7.84;45.91;101751.81;5031515;28;45630;-77
2022/04/04 02:21:05;;;;;;;;;6.25;4.25;;;;;7.86;45.45;101748.38;5036466;28;45403;-76
2022/04/04 02:23:31;;;;;;;;;8.00;6.00;;;;;7.81;45.85;101727.69;5036476;28;45587;-76
2022/04/04 02:25:57;;;;;;;;;12.25;8.75;;;;;7.86;45.57;101742.16;5036702;28;45375;-74
2022/04/04 02:28:24;;;;;;;;;9.75;7.50;;;;;7.83;45.98;101737.56;5036387;28;45524;-75
2022/04/04 02:30:51;;;;;;;;;8.50;8.50;;;;;7.81;45.26;101736.56;5037902;28;45323;-76
2022/04/04 02:33:19;;;;;;;;;9.50;7.75;;;;;7.80;45.59;101739.16;5041486;28;45552;-76
2022/04/04 02:35:46;;;;;;;;;8.25;4.75;;;;;7.78;45.78;101739.06;5031309;28;45655;-76
2022/04/04 02:38:12;;;;;;;;;7.25;7.25;;;;;7.78;45.51;101743.47;5017221;28;46211;-77
2022/04/04 02:40:38;;;;;;;;;6.50;5.50;;;;;7.75;45.67;101731.84;5016901;28;45417;-77
2022/04/04 02:43:05;;;;;;;;;6.25;5.75;;;;;7.58;45.43;101706.09;5009438;28;45590;-77
2022/04/04 02:45:31;;;;;;;;;8.50;6.50;;;;;7.16;45.51;101626.75;5017560;28;45721;-77
2022/04/04 02:47:57;;;;;;;;;11.75;7.00;;;;;7.75;45.57;101730.91;5023150;28;45300;-77
2022/04/04 02:50:22;;;;;;;;;6.25;6.25;;;;;7.65;45.59;101710.00;5003281;28;45665;-76
2022/04/04 02:52:48;;;;;;;;;7.00;7.00;;;;;7.59;45.56;101696.34;5029511;28;47162;-77
2022/04/04 02:57:58;;;;;;;;;9.75;5.50;;;;;7.78;44.87;101722.19;5035439;28;45502;-76
2022/04/04 03:00:24;;;;;;;;;4.75;4.75;;;;;7.62;45.16;101708.06;5035496;28;45501;-76
2022/04/04 03:02:50;;;;;;;;;7.00;7.00;;;;;7.78;45.06;101736.41;5036080;28;45537;-76
2022/04/04 03:05:16;;;;;;;;;9.25;7.25;;;;;7.82;45.32;101726.84;5029489;28;45754;-76
2022/04/04 03:07:42;;;;;;;;;3.25;3.25;;;;;7.76;44.83;101711.47;5016507;28;46908;-76
2022/04/04 03:10:08;;;;;;;;;5.50;4.00;;;;;7.69;44.50;101699.59;5011146;28;45472;-75
2022/04/04 03:12:40;;;;;;;;;6.25;5.00;;;;;7.80;44.92;101723.19;5035582;28;45379;-77
2022/04/04 03:15:06;;;;;;;;;4.00;4.00;;;;;7.58;44.69;101690.13;5035569;28;45590;-76
2022/04/04 03:17:32;;;;;;;;;7.25;6.00;;;;;7.75;44.61;101707.91;5029413;28;45487;-74
2022/04/04 03:19:57;;;;;;;;;5.00;4.00;;;;;7.51;45.05;101675.59;5035511;28;45400;-78
2022/04/04 03:22:22;;;;;;;;;7.00;7.00;;;;;7.59;45.24;101677.72;5040538;28;45380;-75
2022/04/04 03:24:48;;;;;;;;;4.25;4.00;;;;;7.71;45.27;101715.66;5039476;28;45505;-77
2022/04/04 03:27:14;;;;;;;;;7.00;5.00;;;;;7.31;45.36;101660.28;5033862;28;46177;-76
2022/04/04 03:29:40;;;;;;;;;7.50;6.00;;;;;7.33;45.26;101669.28;5031054;28;45626;-76
2022/04/04 03:32:07;;;;;;;;;7.75;4.25;;;;;7.23;46.00;101678.50;5017751;28;45693;-76
2022/04/04 03:34:32;;;;;;;;;7.00;7.00;;;;;7.20;45.91;101689.88;5035594;28;45601;-77
2022/04/04 03:36:58;;;;;;;;;4.75;4.75;;;;;7.20;45.59;101695.19;5035058;28;46203;-76
2022/04/04 03:39:23;;;;;;;;;5.75;4.25;;;;;7.11;46.52;101700.00;5033617;28;45320;-75
2022/04/04 03:41:49;;;;;;;;;6.50;4.00;;;;;6.89;46.38;101673.97;5016057;28;45345;-76
2022/04/04 03:44:14;;;;;;;;;5.25;3.00;;;;;6.99;46.08;101691.34;5016279;28;45407;-76
2022/04/04 03:46:40;;;;;;;;;3.25;2.00;;;;;6.89;47.01;101699.63;5015940;28;46170;-75
2022/04/04 03:49:06;;;;;;;;;7.50;4.75;;;;;6.83;47.13;101690.47;5024627;28;45525;-75
2022/04/04 03:51:31;;;;;;;;;8.00;8.00;;;;;6.82;47.24;101693.03;5043630;28;45720;-75
2022/04/04 03:53:56;;;;;;;;;7.25;7.25;;;;;6.86;46.97;101688.81;5038533;28;45502;-74
2022/04/04 03:56:22;;;;;;;;;12.50;7.00;;;;;6.58;47.62;101648.34;5033744;28;45634;-75
2022/04/04 03:58:49;;;;;;;;;5.25;3.50;;;;;6.77;47.08;101679.50;5022729;28;45384;-75
2022/04/04 04:01:14;;;;;;;;;4.75;4.75;;;;;6.72;46.94;101675.69;5035555;28;45221;-75
2022/04/04 04:03:40;;;;;;;;;5.75;3.25;;;;;6.83;47.51;101684.25;5034955;28;45549;-75
2022/04/04 04:06:11;;;;;;;;;8.50;8.50;;;;;6.81;47.25;101665.59;5017254;28;47387;-73
2022/04/04 04:08:39;;;;;;;;;7.75;7.00;;;;;6.90;47.25;101685.53;5032000;28;45344;-75
2022/04/04 04:11:05;;;;;;;;;7.00;6.00;;;;;6.89;47.07;101681.94;5015676;28;45345;-75
2022/04/04 04:13:30;;;;;;;;;7.25;5.50;;;;;6.78;47.29;101676.03;5016079;28;45555;-75
2022/04/04 04:15:56;;;;;;;;;7.75;6.75;;;;;6.62;47.17;101644.13;5019062;28;45371;-75
2022/04/04 04:18:21;;;;;;;;;8.00;7.00;;;;;6.28;46.66;101592.66;5015586;28;45594;-74
2022/04/04 04:20:46;;;;;;;;;7.75;7.00;;;;;6.40;46.88;101589.81;5015663;28;45376;-73
2022/04/04 04:23:13;;;;;;;;;3.00;2.00;;;;;6.84;46.99;101664.81;5013364;28;45619;-74
2022/04/04 04:25:38;;;;;;;;;8.25;7.75;;;;;6.41;46.75;101573.03;5015236;28;46012;-74
2022/04/04 04:28:06;;;;;;;;;6.50;6.25;;;;;6.92;46.99;101657.28;5024591;28;45246;-74
2022/04/04 04:30:32;;;;;;;;;17.25;12.00;;;;;6.96;46.74;101659.28;5033688;28;45340;-75
2022/04/04 04:32:59;;;;;;;;;9.50;7.50;;;;;6.74;46.86;101614.69;5034773;28;45307;-75
2022/04/04 04:35:24;;;;;;;;;6.50;6.50;;;;;6.99;46.39;101648.81;5016302;28;45912;-75
2022/04/04 04:37:50;;;;;;;;;5.50;5.50;;;;;6.99;46.12;101651.47;5020307;28;45364;-74
2022/04/04 04:40:17;;;;;;;;;8.75;7.00;;;;;6.94;46.28;101647.66;5017431;28;45383;-75
2022/04/04 04:42:44;;;;;;;;;8.75;8.50;;;;;6.93;46.43;101645.81;5015830;28;45298;-73
2022/04/04 04:45:10;;;;;;;;;9.75;8.50;;;;;6.78;47.16;101628.22;5015294;28;46428;-73
2022/04/04 04:47:35;;;;;;;;;14.75;8.25;;;;;6.95;46.95;101644.19;5014985;28;45561;-75
2022/04/04 04:50:03;;;;;;;;;7.00;5.25;;;;;6.97;46.53;101638.09;5034998;28;45452;-72
2022/04/04 04:52:29;;;;;;;;;7.25;6.50;;;;;7.01;46.82;101641.84;5018888;28;45387;-74
2022/04/04 04:54:54;;;;;;;;;8.25;7.75;;;;;6.98;47.10;101642.59;5015625;28;46305;-75
2022/04/04 04:57:20;;;;;;;;;10.50;8.75;;;;;6.72;47.25;101593.34;5015937;28;45362;-76
2022/04/04 04:59:46;;;;;;;;;7.75;5.25;;;;;6.93;47.94;101624.56;5015654;28;45666;-75
2022/04/04 05:02:12;;;;;;;;;10.00;8.50;;;;;7.04;47.79;101635.81;5018172;28;45720;-74
2022/04/04 05:04:37;;;;;;;;;8.25;7.50;;;;;6.91;47.67;101618.25;5031072;28;46230;-74
2022/04/04 05:07:03;;;;;;;;;7.75;6.50;;;;;7.00;47.54;101638.28;5033576;28;45352;-75
2022/04/04 05:09:28;;;;;;;;;13.00;9.00;;;;;6.88;47.70;101612.78;5019952;28;45281;-74
2022/04/04 05:11:54;;;;;;;;;8.00;8.00;;;;;7.02;47.25;101641.03;5018703;28;45368;-75
2022/04/04 05:14:19;;;;;;;;;7.50;4.75;;;;;6.87;47.12;101632.22;5027044;28;50088;-74
2022/04/04 05:16:46;;;;;;;;;8.25;8.25;;;;;6.74;47.51;101630.63;5016333;28;46121;-75
2022/04/04 05:19:13;;;;;;;;;10.00;7.75;;;;;6.80;47.36;101642.50;5006595;28;45470;-75
2022/04/04 05:21:39;;;;;;;;;6.75;6.75;;;;;6.38;47.21;101579.91;5028667;28;45202;-75
2022/04/04 05:24:06;;;;;;;;;9.00;9.00;;;;;6.34;47.35;101584.16;5030217;28;46427;-74
2022/04/04 05:26:32;;;;;;;;;12.50;9.00;;;;;6.73;47.92;101636.75;5030200;28;45158;-76
2022/04/04 05:28:57;;;;;;;;;9.75;9.50;;;;;6.71;47.96;101636.66;5030879;28;45254;-75
2022/04/04 05:31:23;;;;;;;;;10.00;7.00;;;;;6.74;48.11;101639.50;5031322;28;45520;-73
2022/04/04 05:33:49;;;;;;;;;14.00;9.50;;;;;6.79;48.17;101643.31;5033504;28;45332;-75
2022/04/04 05:36:14;;;;;;;;;13.50;10.75;;;;;6.82;47.77;101640.84;5032601;28;45604;-73
2022/04/04 05:38:39;;;;;;;;;11.25;9.50;;;;;6.78;47.77;101629.94;5024058;28;45680;-74
2022/04/04 05:41:05;;;;;;;;;9.75;8.00;;;;;6.86;47.60;101641.91;5023162;28;46042;-74
2022/04/04 05:43:30;;;;;;;;;12.00;10.75;;;;;6.66;47.88;101600.06;5021423;28;45603;-73
2022/04/04 05:45:55;;;;;;;;;10.75;10.50;;;;;6.89;47.81;101633.22;5035142;28;45336;-75
2022/04/04 05:48:23;;;;;;;;;7.50;5.75;;;;;6.70;47.66;101604.69;5024585;28;45415;-74
2022/04/04 05:50:48;;;;;;;;;8.75;8.50;;;;;6.77;48.45;101621.06;5018162;28;45352;-75
2022/04/04 05:53:14;;;;;;;;;19.00;14.25;;;;;6.35;47.91;101546.19;5019509;28;46186;-75
2022/04/04 05:55:39;;;;;;;;;11.00;7.75;;;;;6.84;47.83;101627.63;5026669;28;45464;-74
2022/04/04 05:58:05;;;;;;;;;16.50;11.75;;;;;6.75;48.53;101620.09;5036327;28;46640;-73
2022/04/04 06:00:30;;;;;;;;;11.50;10.00;;;;;6.78;48.23;101628.22;5036816;28;45433;-74
2022/04/04 06:02:56;;;;;;;;;13.25;11.75;;;;;6.69;48.32;101616.16;5042230;28;45991;-72
2022/04/04 06:05:21;;;;;;;;;10.25;8.25;;;;;6.86;48.11;101636.59;5040570;28;45464;-74
2022/04/04 06:07:46;;;;;;;;;13.75;13.25;;;;;6.73;48.00;101607.53;5037731;28;45332;-74
2022/04/04 06:10:13;;;;;;;;;10.50;9.75;;;;;6.67;47.99;101585.97;5022171;28;45388;-75
2022/04/04 06:12:40;;;;;;;;;10.00;9.25;;;;;6.95;47.59;101626.50;5023224;28;45316;-74
2022/04/04 06:15:06;;;;;;;;;13.25;13.25;;;;;6.83;47.49;101608.13;5017137;28;45354;-74
2022/04/04 06:17:32;;;;;;;;;14.75;10.00;;;;;6.97;46.95;101626.56;5018438;28;45463;-74
2022/04/04 06:19:58;;;;;;;;;16.00;13.75;;;;;6.61;47.93;101559.97;5035861;28;45574;-73
2022/04/04 06:22:23;;;;;;;;;16.00;10.50;;;;;6.95;47.60;101617.63;5035960;28;45540;-73
2022/04/04 06:24:50;;;;;;;;;10.00;9.00;;;;;6.97;47.36;101623.91;5030820;28;45490;-74
2022/04/04 06:27:18;;;;;;;;;11.50;9.25;;;;;6.95;47.22;101621.19;5032027;28;45360;-74
2022/04/04 06:29:45;;;;;;;;;11.25;11.25;;;;;6.95;47.28;101620.28;5020275;28;45512;-73
2022/04/04 06:32:11;;;;;;;;;14.75;9.00;;;;;6.74;47.21;101581.06;5023764;28;46257;-73
2022/04/04 06:34:37;;;;;;;;;12.00;10.50;;;;;6.69;46.68;101563.97;5016891;28;45616;-72
2022/04/04 06:37:04;;;;;;;;;10.00;9.00;;;;;7.00;46.93;101619.69;5032786;28;45553;-74
2022/04/04 06:39:30;;;;;;;;;12.00;8.75;;;;;7.01;46.31;101615.28;5035871;28;45539;-74
2022/04/04 06:41:55;;;;;;;;;13.00;9.50;;;;;7.01;45.96;101624.19;5034607;28;46733;-74
2022/04/04 06:44:20;;;;;;;;;13.00;13.00;;;;;7.03;46.73;101616.31;5029460;28;45466;-74
2022/04/04 06:46:46;;;;;;;;;12.50;10.00;;;;;6.91;45.72;101592.59;5020586;28;45446;-73
2022/04/04 06:49:11;;;;;;;;;9.50;9.50;;;;;7.08;45.99;101611.22;5018852;28;45423;-72
2022/04/04 06:51:36;;;;;;;;;8.25;7.75;;;;;6.89;45.74;101581.00;5016222;28;45880;-74
2022/04/04 06:54:05;;;;;;;;;8.50;8.50;;;;;7.10;45.57;101601.59;5016295;28;45345;-73
2022/04/04 06:56:31;;;;;;;;;8.75;7.50;;;;;6.98;45.24;101577.94;5016558;28;45496;-74
2022/04/04 06:58:57;;;;;;;;;12.00;8.25;;;;;7.20;44.72;101614.53;5016384;28;45543;-73
2022/04/04 07:01:22;;;;;;;;;8.25;8.00;;;;;7.22;44.49;101611.97;5015756;28;45428;-73
2022/04/04 07:03:48;;;;;;;;;7.50;6.25;;;;;7.19;44.11;101595.03;5016058;28;46816;-73
2022/04/04 07:06:13;;;;;;;;;7.75;7.00;;;;;7.19;43.96;101587.06;5016688;28;46014;-73
2022/04/04 07:08:39;;;;;;;;;8.75;8.75;;;;;7.09;43.64;101559.91;5016603;28;45368;-75
2022/04/04 07:11:08;;;;;;;;;9.00;7.25;;;;;7.33;43.28;101597.50;5015946;28;46182;-74
2022/04/04 07:13:34;;;;;;;;;6.75;6.75;;;;;7.38;42.91;101594.25;5016166;28;45592;-75
2022/04/04 07:15:59;;;;;;;;;10.50;8.25;;;;;7.35;43.32;101571.91;5015936;28;45400;-74
2022/04/04 07:18:24;;;;;;;;;7.50;7.50;;;;;7.46;43.64;101586.69;5016192;28;45406;-75
2022/04/04 07:20:50;;;;;;;;;9.25;8.25;;;;;7.52;43.68;101588.75;5014213;28;47300;-73
2022/04/04 07:23:15;;;;;;;;;10.00;8.75;;;;;7.35;43.11;101545.34;5016042;28;45475;-73
2022/04/04 07:25:40;;;;;;;;;8.75;7.00;;;;;7.44;43.09;101543.16;5015789;28;45462;-75
2022/04/04 07:28:06;;;;;;;;;8.25;6.00;;;;;7.66;43.39;101578.84;5016397;28;45387;-74
2022/04/04 07:30:31;;;;;;;;;11.25;10.00;;;;;7.53;42.12;101554.25;5016039;28;47049;-75
2022/04/04 07:32:57;;;;;;;;;13.50;11.00;;;;;7.55;42.67;101552.59;5016068;28;45710;-75
2022/04/04 07:35:22;;;;;;;;;11.25;11.25;;;;;7.35;42.25;101495.72;5015800;28;45305;-75
2022/04/04 07:37:49;;;;;;;;;8.50;8.50;;;;;7.58;42.25;101533.22;5016520;28;45258;-75
2022/04/04 07:40:17;;;;;;;;;15.00;11.50;;;;;7.82;41.72;101561.91;4997788;28;46007;-75
2022/04/04 07:42:44;;;;;;;;;12.00;12.00;;;;;7.88;41.83;101559.56;5015723;28;45484;-75
2022/04/04 07:45:11;;;;;;;;;8.50;8.25;;;;;7.89;41.74;101553.41;5015264;28;45250;-74
2022/04/04 07:47:37;;;;;;;;;8.75;8.00;;;;;7.97;41.37;101560.03;5015755;28;45524;-74
2022/04/04 07:50:04;;;;;;;;;8.25;8.25;;;;;7.96;41.46;101539.56;5015232;28;45430;-75
2022/04/04 07:52:30;;;;;;;;;8.50;7.50;;;;;7.60;40.72;101467.72;5015573;28;45383;-73
2022/04/04 07:54:55;;;;;;;;;13.75;11.50;;;;;8.00;40.49;101529.97;5015242;28;45623;-74
2022/04/04 07:57:21;;;;;;;;;9.75;7.50;;;;;8.19;40.71;101554.00;5015431;28;45364;-75
2022/04/04 07:59:46;;;;;;;;;9.25;6.50;;;;;7.87;40.61;101467.25;5014320;28;46232;-74
2022/04/04 08:02:12;;;;;;;;;9.50;9.50;;;;;8.24;39.91;101525.84;5014764;28;45486;-75
2022/04/04 08:04:38;;;;;;;;;9.50;8.25;;;;;8.32;40.04;101523.56;5014977;28;45403;-75
2022/04/04 08:07:04;;;;;;;;;11.00;10.00;;;;;8.32;39.59;101512.91;5015421;28;45391;-78
2022/04/04 08:09:29;;;;;;;;;6.00;6.00;;;;;8.20;38.82;101493.69;5015208;28;45468;-77
2022/04/04 08:11:55;;;;;;;;;8.75;6.00;;;;;8.48;39.40;101530.59;5015108;28;45452;-75
2022/04/04 08:14:21;;;;;;;;;10.00;8.75;;;;;8.52;38.94;101526.31;5015270;28;45474;-77
2022/04/04 08:16:47;;;;;;;;;11.50;10.25;;;;;8.58;39.04;101532.84;4997743;28;45508;-79
2022/04/04 08:19:13;;;;;;;;;6.00;5.00;;;;;8.31;39.01;101468.50;5014960;28;46462;-75
2022/04/04 08:21:41;;;;;;;;;6.25;6.25;;;;;8.73;38.58;101515.72;5034392;28;45700;-75
2022/04/04 08:24:07;;;;;;;;;8.00;8.00;;;;;8.82;38.04;101524.16;5034239;28;45359;-75
2022/04/04 08:26:33;;;;;;;;;4.00;4.00;;;;;8.89;37.91;101523.56;5034438;28;45379;-73
2022/04/04 08:28:58;;;;;;;;;8.25;6.50;;;;;8.85;38.38;101509.22;5033672;28;46103;-72
2022/04/04 08:31:41;;;;;;;;;9.00;9.00;;;;;8.76;37.47;101473.25;5135255;27;45304;-76
2022/04/04 08:34:07;;;;;;;;;8.75;8.75;;;;;9.03;37.61;101498.47;5112505;27;45791;-76
2022/04/04 08:36:32;;;;;;;;;11.25;8.25;;;;;9.09;37.67;101502.25;5112300;27;45558;-73
2022/04/04 08:38:58;;;;;;;;;12.00;10.00;;;;;8.56;37.42;101387.09;5093792;27;45489;-75
2022/04/04 08:41:24;;;;;;;;;8.50;6.00;;;;;9.01;36.99;101457.53;5111531;27;46273;-75
2022/04/04 08:43:51;;;;;;;;;6.50;6.50;;;;;9.27;37.22;101486.16;5118877;27;45378;-75
2022/04/04 08:46:16;;;;;;;;;10.00;9.00;;;;;9.42;37.41;101494.84;5112148;27;45448;-75
2022/04/04 08:48:42;;;;;;;;;10.25;7.25;;;;;9.37;36.99;101478.63;5111945;27;45373;-73
2022/04/04 08:51:08;;;;;;;;;9.25;4.75;;;;;9.49;36.18;101486.25;5111945;27;45359;-75
2022/04/04 08:53:35;;;;;;;;;6.50;6.50;;;;;9.32;36.73;101456.19;5111879;27;45411;-75
2022/04/04 08:56:01;;;;;;;;;5.25;5.25;;;;;9.60;36.19;101484.00;5112081;27;45538;-76
2022/04/04 08:58:27;;;;;;;;;4.00;4.00;;;;;9.68;36.34;101479.91;5112149;27;45381;-75
2022/04/04 09:00:52;;;;;;;;;6.25;4.75;;;;;9.69;35.56;101475.50;5111803;27;45495;-77
2022/04/04 09:03:22;;;;;;;;;4.00;4.00;;;;;9.70;35.01;101479.97;5112018;27;45571;-77
2022/04/04 09:05:55;;;;;;;;;4.75;4.00;;;;;9.44;35.07;101428.19;5111934;27;45518;-76
2022/04/04 09:08:22;;;;;;;;;2.00;2.00;;;;;9.86;35.11;101477.09;5112232;27;45564;-76
2022/04/04 09:10:53;;;;;;;;;11.00;7.25;;;;;10.06;35.22;101471.66;5110988;27;46276;-79
2022/04/04 09:13:20;;;;;;;;;4.75;2.25;;;;;10.00;34.71;101429.63;5115614;27;45428;-80
2022/04/04 09:15:52;;;;;;;;;6.00;4.00;;;;;10.39;33.96;101479.22;5116674;27;45445;-75
2022/04/04 09:18:19;;;;;;;;;4.00;4.00;;;;;10.55;33.32;101467.38;5131337;27;45445;-77
2022/04/04 09:20:52;;;;;;;;;4.25;3.75;;;;;10.56;33.74;101416.66;5131279;27;47185;-74
2022/04/04 09:23:18;;;;;;;;;6.00;5.00;;;;;10.70;33.02;101406.47;5131125;27;45460;-79
2022/04/04 09:25:45;;;;;;;;;10.00;5.00;;;;;11.10;31.98;101457.78;5131495;27;45365;-73
2022/04/04 09:28:18;;;;;;;;;4.50;4.00;;;;;10.86;32.36;101391.91;5113208;27;45362;-73
2022/04/04 09:31:04;;;;;;;;;5.50;2.50;;;;;11.13;31.81;101447.19;5111032;27;46269;-75
2022/04/04 09:33:41;;;;;;;;;6.50;5.00;;;;;10.60;32.11;101361.56;5129183;27;45287;-78
2022/04/04 09:36:07;;;;;;;;;5.00;3.75;;;;;11.06;32.03;101436.28;5127940;27;45402;-77
2022/04/04 09:38:34;;;;;;;;;2.00;2.00;;;;;11.06;31.97;101438.94;5111720;27;45393;-80
2022/04/04 09:41:27;;;;;;;;;6.75;5.00;;;;;11.12;31.82;101435.59;5090014;27;47421;-78
2022/04/04 09:43:58;;;;;;;;;6.25;5.00;;;;;11.15;31.80;101429.44;5097501;27;45548;-83
2022/04/04 09:46:40;;;;;;;;;6.50;4.00;;;;;11.03;31.54;101430.81;5111589;27;45410;-82
2022/04/04 09:49:15;;;;;;;;;4.25;4.25;;;;;11.03;31.55;101409.41;5117540;27;45423;-81
2022/04/04 09:51:55;;;;;;;;;3.75;3.75;;;;;10.84;30.58;101359.75;5117189;27;45440;-82
2022/04/04 09:54:28;;;;;;;;;1.25;1.25;;;;;11.17;29.06;101420.63;5117369;27;45391;-84
2022/04/04 09:57:10;;;;;;;;;4.25;4.25;;;;;11.13;29.18;101396.38;5117328;27;45425;-80
2022/04/04 09:59:41;;;;;;;;;5.00;3.25;;;;;10.89;28.78;101362.59;5117604;27;45656;-81
2022/04/04 10:02:07;;;;;;;;;1.00;1.00;;;;;11.12;29.02;101405.25;5116514;27;45538;-81
2022/04/04 10:04:33;;;;;;;;;3.25;3.00;;;;;11.02;29.34;101361.22;5105404;27;45387;-81
2022/04/04 10:07:05;;;;;;;;;5.00;4.50;;;;;11.37;29.67;101402.56;5117341;27;45389;-80
2022/04/04 10:09:30;;;;;;;;;3.25;3.00;;;;;11.44;30.11;101392.97;5086585;27;45475;-80
2022/04/04 10:11:57;;;;;;;;;8.00;5.00;;;;;11.36;29.81;101370.41;5116931;27;46187;-78
2022/04/04 10:14:23;;;;;;;;;4.00;4.00;;;;;11.47;30.16;101369.00;5117231;27;45321;-82
2022/04/04 10:16:51;;;;;;;;;4.00;4.00;;;;;11.55;29.67;101380.88;5103885;27;45411;-80
2022/04/04 10:19:17;;;;;;;;;4.25;4.25;;;;;11.56;30.46;101395.16;5100428;27;45529;-82
2022/04/04 10:21:42;;;;;;;;;3.50;3.25;;;;;11.50;30.21;101358.41;5097162;27;45052;-81
2022/04/04 10:24:11;;;;;;;;;5.00;3.25;;;;;11.05;30.40;101294.50;5097337;27;45384;-82
2022/04/04 10:26:37;;;;;;;;;5.50;5.50;;;;;11.65;30.42;101390.09;5085311;27;45460;-81
2022/04/04 10:29:14;;;;;;;;;4.50;4.50;;;;;11.71;29.41;101365.28;5079150;27;45580;-79
2022/04/04 10:31:52;;;;;;;;;5.00;5.00;;;;;11.85;30.60;101363.97;5096198;27;45452;-81
2022/04/04 10:34:22;;;;;;;;;4.00;2.75;;;;;11.73;29.91;101321.66;5097101;27;45577;-81
2022/04/04 10:36:55;;;;;;;;;5.75;4.75;;;;;11.97;29.30;101364.34;5097171;27;45510;-79
2022/04/04 10:39:34;;;;;;;;;3.00;3.00;;;;;11.98;28.60;101341.19;5097022;27;45421;-79
2022/04/04 10:41:59;;;;;;;;;2.50;2.50;;;;;11.72;28.71;101308.22;5110662;27;45982;-78
2022/04/04 10:44:47;;;;;;;;;3.25;3.25;;;;;12.02;28.98;101345.75;5114468;27;45342;-81
2022/04/04 10:47:23;;;;;;;;;4.25;4.25;;;;;11.92;28.66;101315.09;5093037;27;45503;-80
2022/04/04 10:49:48;;;;;;;;;4.00;4.00;;;;;11.84;27.30;101286.28;5115562;27;45260;-79
2022/04/04 10:52:18;;;;;;;;;6.75;5.00;;;;;12.06;27.74;101303.91;5096447;27;45495;-77
2022/04/04 10:54:44;;;;;;;;;2.75;2.50;;;;;12.27;26.62;101328.63;5095793;27;45465;-81
2022/04/04 10:57:17;;;;;;;;;6.00;3.00;;;;;12.30;27.67;101322.47;5097834;27;45382;-80
2022/04/04 10:59:56;;;;;;;;;4.00;4.00;;;;;12.33;27.21;101318.09;5103677;27;45516;-82
2022/04/04 11:02:24;;;;;;;;;8.00;4.00;;;;;12.45;26.48;101317.53;5084506;27;47136;-79
2022/04/04 11:07:39;;;;;;;;;4.00;4.00;;;;;12.53;27.18;101323.09;5113618;27;45556;-82
2022/04/04 11:10:06;;;;;;;;;7.00;6.00;;;;;12.52;27.09;101305.19;5108415;27;45484;-77
2022/04/04 11:12:55;;;;;;;;;3.00;3.00;;;;;12.58;27.28;101286.59;5100765;27;46186;-78
2022/04/04 11:15:43;;;;;;;;;6.75;3.50;;;;;12.30;27.28;101231.38;5099416;27;45505;-82
2022/04/04 11:18:11;;;;;;;;;7.50;5.75;;;;;12.54;27.97;101256.13;5118567;27;45348;-80
2022/04/04 11:20:46;;;;;;;;;8.00;6.50;;;;;12.74;27.54;101287.94;5116993;27;45438;-82
2022/04/04 11:23:12;;;;;;;;;6.25;6.25;;;;;12.56;27.76;101244.56;5115522;27;45462;-83
2022/04/04 11:25:52;;;;;;;;;6.00;5.50;;;;;12.75;27.48;101276.31;5115824;27;45555;-83
2022/04/04 11:28:22;;;;;;;;;5.25;3.50;;;;;12.85;27.99;101267.66;5109659;27;45645;-82
2022/04/04 11:30:51;;;;;;;;;6.50;5.00;;;;;12.91;28.10;101256.16;5109680;27;45387;-81
2022/04/04 11:33:22;;;;;;;;;22.75;13.75;;;;;12.90;27.97;101246.31;5102106;27;46058;-78
2022/04/04 11:35:50;;;;;;;;;10.50;7.25;;;;;12.97;28.21;101266.13;5096111;27;45561;-78